Time;durP1;ratioP1;P1;durP2;ratioP2;P2;SDS_P1;SDS_P2;PMS_P1;PMS_P2;Temp;Humidity;BMP_temperature;BMP_pressure;BME280_temperature;BME280_humidity;BME280_pressure;Samples;Min_cycle;Max_cycle;Signal;HPM_P1;HPM_P2
2023/12/10 00:00:40;;;;;;;1.10;0.40;;;15.30;54.10;;;;;;5110866;28;20115;-71
2023/12/10 00:03:06;;;;;;;1.70;0.40;;;15.30;54.10;;;;;;5110974;28;20151;-69
2023/12/10 00:05:31;;;;;;;3.33;0.50;;;15.30;54.10;;;;;;5111097;28;20494;-70
2023/12/10 00:07:58;;;;;;;2.35;0.40;;;15.30;54.10;;;;;;5112273;28;20039;-70
2023/12/10 00:10:23;;;;;;;3.05;0.32;;;15.30;54.10;;;;;;5110861;28;20078;-71
2023/12/10 00:12:49;;;;;;;2.80;0.50;;;15.30;54.10;;;;;;5110752;28;20068;-70
2023/12/10 00:15:15;;;;;;;1.80;0.30;;;15.30;54.10;;;;;;5111872;28;20478;-70
2023/12/10 00:17:41;;;;;;;3.40;0.65;;;15.30;54.10;;;;;;5111964;28;20035;-71
2023/12/10 00:20:07;;;;;;;1.90;0.50;;;15.30;54.10;;;;;;5110868;28;20089;-69
2023/12/10 00:22:33;;;;;;;2.65;0.30;;;15.20;54.10;;;;;;5110717;28;20039;-69
2023/12/10 00:24:59;;;;;;;1.65;0.30;;;15.20;54.00;;;;;;5110779;28;20039;-69
2023/12/10 00:27:24;;;;;;;3.38;0.50;;;15.20;54.00;;;;;;5110658;28;20036;-71
2023/12/10 00:29:50;;;;;;;3.92;0.50;;;15.20;54.00;;;;;;5110846;28;20075;-71
2023/12/10 00:32:16;;;;;;;3.65;0.60;;;15.30;54.10;;;;;;5110492;28;20041;-69
2023/12/10 00:34:41;;;;;;;1.42;0.32;;;15.20;54.00;;;;;;5111527;28;20047;-71
2023/12/10 00:37:07;;;;;;;4.15;0.30;;;15.20;54.00;;;;;;5110473;28;20051;-71
2023/12/10 00:39:33;;;;;;;2.28;0.40;;;15.20;54.10;;;;;;5110690;28;20032;-69
2023/12/10 00:41:58;;;;;;;3.97;0.80;;;15.20;54.00;;;;;;5111894;28;20042;-71
2023/12/10 00:44:24;;;;;;;2.47;0.25;;;15.20;54.00;;;;;;5115108;28;20539;-71
2023/12/10 00:46:50;;;;;;;2.40;0.50;;;15.20;54.00;;;;;;5115703;28;20466;-71
2023/12/10 00:49:15;;;;;;;3.45;1.20;;;15.20;54.00;;;;;;5114148;28;20083;-68
2023/12/10 00:51:41;;;;;;;2.53;0.40;;;15.20;54.00;;;;;;5115640;28;20050;-71
2023/12/10 00:54:07;;;;;;;2.90;0.50;;;15.20;54.00;;;;;;5114113;28;20035;-70
2023/12/10 00:56:33;;;;;;;3.17;0.75;;;15.20;54.00;;;;;;5115225;27;20051;-69
2023/12/10 00:58:59;;;;;;;1.85;0.68;;;15.20;54.00;;;;;;5113910;28;20495;-69
2023/12/10 01:01:25;;;;;;;1.98;0.47;;;15.20;54.00;;;;;;5115206;28;20047;-71
2023/12/10 01:03:51;;;;;;;2.55;0.40;;;15.20;54.00;;;;;;5115041;28;20040;-70
2023/12/10 01:06:17;;;;;;;2.35;0.43;;;15.20;54.10;;;;;;5115275;28;20040;-69
2023/12/10 01:08:43;;;;;;;2.53;0.40;;;15.20;54.10;;;;;;5115049;28;20036;-70
2023/12/10 01:11:09;;;;;;;1.48;0.32;;;15.20;54.10;;;;;;5113632;28;20044;-69
2023/12/10 01:13:35;;;;;;;2.70;0.52;;;15.20;54.10;;;;;;5113679;28;20042;-69
2023/12/10 01:16:01;;;;;;;3.00;0.50;;;15.20;54.10;;;;;;5113394;28;20054;-68
2023/12/10 01:18:26;;;;;;;2.90;0.47;;;15.20;54.10;;;;;;5113529;28;20035;-71
2023/12/10 01:20:52;;;;;;;2.75;0.40;;;15.20;54.10;;;;;;5113371;28;20046;-68
2023/12/10 01:23:18;;;;;;;2.90;0.75;;;15.20;54.10;;;;;;5113450;28;20093;-70
2023/12/10 01:25:44;;;;;;;2.85;0.57;;;15.20;54.10;;;;;;5113556;28;20054;-69
2023/12/10 01:28:10;;;;;;;2.65;0.40;;;15.10;54.10;;;;;;5113674;28;20382;-68
2023/12/10 01:30:36;;;;;;;3.40;0.65;;;15.10;54.10;;;;;;5113570;28;20047;-70
2023/12/10 01:33:02;;;;;;;2.20;0.57;;;15.10;54.10;;;;;;5113270;28;20131;-68
2023/12/10 01:35:29;;;;;;;3.47;0.57;;;15.10;54.10;;;;;;5112799;28;20123;-68
2023/12/10 01:37:55;;;;;;;2.15;0.55;;;15.10;54.10;;;;;;5113028;28;20050;-68
2023/12/10 01:40:21;;;;;;;3.45;0.70;;;15.10;54.10;;;;;;5113351;28;20104;-69
2023/12/10 01:42:47;;;;;;;2.67;0.68;;;15.10;54.20;;;;;;5113267;28;20134;-70
2023/12/10 01:45:13;;;;;;;2.70;0.47;;;15.10;54.20;;;;;;5113348;28;20575;-68
2023/12/10 01:47:43;;;;;;;3.10;0.40;;;15.10;54.20;;;;;;5114225;28;20028;-68
2023/12/10 01:50:11;;;;;;;3.45;1.17;;;15.10;54.20;;;;;;5113384;28;20475;-69
2023/12/10 01:52:38;;;;;;;2.85;0.45;;;15.10;54.20;;;;;;5112783;28;20043;-68
2023/12/10 01:55:05;;;;;;;2.88;0.40;;;15.10;54.30;;;;;;5114258;28;20050;-69
2023/12/10 01:57:33;;;;;;;3.15;0.60;;;15.10;54.30;;;;;;5113971;28;20119;-68
2023/12/10 01:59:59;;;;;;;3.38;0.55;;;15.10;54.20;;;;;;5112716;28;20047;-68
2023/12/10 02:02:26;;;;;;;3.63;0.60;;;15.10;54.30;;;;;;5112677;28;20035;-68
2023/12/10 02:04:54;;;;;;;2.50;0.43;;;15.10;54.30;;;;;;5112873;28;20039;-68
2023/12/10 02:07:21;;;;;;;2.65;0.52;;;15.10;54.30;;;;;;5112589;28;20038;-68
2023/12/10 02:09:47;;;;;;;3.28;0.40;;;15.10;54.30;;;;;;5112572;28;20132;-68
2023/12/10 02:12:13;;;;;;;2.08;0.47;;;15.10;54.40;;;;;;5113930;28;20063;-69
2023/12/10 02:14:39;;;;;;;3.20;0.57;;;15.10;54.30;;;;;;5113701;27;20046;-70
2023/12/10 02:17:05;;;;;;;1.73;0.30;;;15.10;54.30;;;;;;5112314;28;20491;-71
2023/12/10 02:19:32;;;;;;;4.85;0.60;;;15.10;54.40;;;;;;5112232;28;20093;-70
2023/12/10 02:21:59;;;;;;;3.10;0.52;;;15.10;54.40;;;;;;5112304;28;20035;-66
2023/12/10 02:24:31;;;;;;;3.53;0.65;;;15.10;54.40;;;;;;5113493;28;20050;-69
2023/12/10 02:26:57;;;;;;;1.83;0.50;;;15.10;54.40;;;;;;5113643;28;20039;-68
2023/12/10 02:29:23;;;;;;;2.35;0.50;;;15.00;54.40;;;;;;5113856;28;20042;-66
2023/12/10 02:31:48;;;;;;;2.05;0.40;;;15.00;54.40;;;;;;5112133;28;20039;-66
2023/12/10 02:34:14;;;;;;;1.92;0.40;;;15.00;54.40;;;;;;5111970;28;20044;-66
2023/12/10 02:36:39;;;;;;;3.85;0.60;;;15.10;54.50;;;;;;5111702;28;20054;-66
2023/12/10 02:39:06;;;;;;;2.85;0.60;;;15.00;54.50;;;;;;5113356;28;20075;-66
2023/12/10 02:41:32;;;;;;;4.43;0.60;;;15.00;54.50;;;;;;5111990;28;20042;-66
2023/12/10 02:43:57;;;;;;;3.83;0.45;;;15.00;54.50;;;;;;5112120;28;20039;-66
2023/12/10 02:46:23;;;;;;;3.28;0.45;;;15.00;54.50;;;;;;5111883;28;20501;-66
2023/12/10 02:48:49;;;;;;;2.53;0.40;;;15.00;54.50;;;;;;5111615;28;20039;-66
2023/12/10 02:51:14;;;;;;;4.20;0.50;;;15.00;54.50;;;;;;5113086;28;20038;-66
2023/12/10 02:53:40;;;;;;;3.13;0.90;;;15.00;54.60;;;;;;5113143;28;20089;-66
2023/12/10 02:56:06;;;;;;;2.40;0.60;;;15.00;54.60;;;;;;5111974;28;20062;-68
2023/12/10 02:58:32;;;;;;;2.40;0.47;;;15.00;54.60;;;;;;5113326;28;20036;-68
2023/12/10 03:00:58;;;;;;;3.03;0.50;;;15.00;54.60;;;;;;5112863;28;20501;-68
2023/12/10 03:03:23;;;;;;;3.80;0.82;;;15.00;54.60;;;;;;5111813;28;20122;-66
2023/12/10 03:05:52;;;;;;;2.90;0.60;;;15.00;54.60;;;;;;5112306;28;20031;-69
2023/12/10 03:08:17;;;;;;;2.97;0.63;;;15.00;54.60;;;;;;5111796;28;20039;-68
2023/12/10 03:10:43;;;;;;;3.42;0.65;;;15.00;54.70;;;;;;5111334;28;20449;-67
2023/12/10 03:13:09;;;;;;;5.15;0.70;;;15.00;54.60;;;;;;5111657;28;20035;-66
2023/12/10 03:15:34;;;;;;;2.60;0.52;;;14.90;54.60;;;;;;5111232;28;20035;-67
2023/12/10 03:18:01;;;;;;;2.63;0.47;;;14.90;54.60;;;;;;5111339;28;20040;-66
2023/12/10 03:20:26;;;;;;;3.97;0.82;;;14.90;54.70;;;;;;5111407;28;20048;-69
2023/12/10 03:22:52;;;;;;;3.45;0.90;;;14.90;54.70;;;;;;5111313;28;20453;-66
2023/12/10 03:25:18;;;;;;;3.33;0.47;;;14.90;54.70;;;;;;5112464;28;20063;-68
2023/12/10 03:27:43;;;;;;;2.80;0.40;;;14.90;54.80;;;;;;5111635;28;20487;-68
2023/12/10 03:30:09;;;;;;;3.67;0.52;;;14.90;54.80;;;;;;5112854;28;20463;-67
2023/12/10 03:32:35;;;;;;;2.38;0.55;;;14.90;54.80;;;;;;5112496;28;20398;-68
2023/12/10 03:35:01;;;;;;;4.63;0.95;;;14.90;54.80;;;;;;5110733;28;20047;-68
2023/12/10 03:37:26;;;;;;;3.50;0.50;;;14.90;54.80;;;;;;5111053;28;20048;-67
2023/12/10 03:39:52;;;;;;;2.38;0.50;;;14.90;54.80;;;;;;5112310;28;20040;-67
2023/12/10 03:42:18;;;;;;;4.47;0.60;;;14.90;54.90;;;;;;5110972;28;20165;-66
2023/12/10 03:44:43;;;;;;;5.35;0.70;;;14.90;54.80;;;;;;5111288;28;20046;-68
2023/12/10 03:47:09;;;;;;;3.53;0.45;;;14.90;54.90;;;;;;5111005;28;20044;-68
2023/12/10 03:49:34;;;;;;;3.83;0.52;;;14.90;54.90;;;;;;5111046;28;20050;-66
2023/12/10 03:52:00;;;;;;;5.78;0.65;;;14.90;54.90;;;;;;5112130;28;20062;-68
2023/12/10 03:54:26;;;;;;;3.40;0.60;;;14.90;54.90;;;;;;5111180;28;20048;-67
2023/12/10 03:56:51;;;;;;;3.15;0.65;;;14.90;54.90;;;;;;5110902;28;20027;-66
2023/12/10 03:59:17;;;;;;;2.58;0.52;;;14.90;54.90;;;;;;5112113;28;20051;-66
2023/12/10 04:01:43;;;;;;;2.80;0.63;;;14.90;54.90;;;;;;5110809;28;20038;-66
2023/12/10 04:04:11;;;;;;;3.40;0.40;;;14.90;55.00;;;;;;5110900;28;20168;-70
2023/12/10 04:06:40;;;;;;;3.15;0.70;;;14.90;55.00;;;;;;5110872;28;20093;-66
2023/12/10 04:09:08;;;;;;;4.65;1.35;;;14.90;55.00;;;;;;5111074;28;20090;-66
2023/12/10 04:11:34;;;;;;;3.75;0.57;;;14.90;55.10;;;;;;5111935;28;20043;-68
2023/12/10 04:14:00;;;;;;;2.05;0.50;;;14.90;55.00;;;;;;5110754;28;20504;-66
2023/12/10 04:19:06;;;;;;;1.70;0.47;;;14.90;55.00;;;;;;5089368;27;20950;-67
2023/12/10 04:21:32;;;;;;;2.80;0.50;;;14.90;55.00;;;;;;5088115;28;20040;-66
2023/12/10 04:23:57;;;;;;;4.75;0.88;;;14.80;55.10;;;;;;5088323;28;20082;-66
2023/12/10 04:26:23;;;;;;;2.85;0.73;;;14.80;55.10;;;;;;5088056;28;20051;-66
2023/12/10 04:28:49;;;;;;;3.00;0.60;;;14.80;55.20;;;;;;5087936;28;20097;-66
2023/12/10 04:31:15;;;;;;;2.30;0.40;;;14.80;55.10;;;;;;5089396;28;20333;-66
2023/12/10 04:33:44;;;;;;;3.65;0.50;;;14.80;55.10;;;;;;5088244;28;20067;-66
2023/12/10 04:36:10;;;;;;;3.13;0.68;;;14.80;55.20;;;;;;5087878;28;20040;-66
2023/12/10 04:38:36;;;;;;;1.63;0.45;;;14.80;55.20;;;;;;5087814;28;20446;-68
2023/12/10 04:41:01;;;;;;;2.47;0.77;;;14.80;55.20;;;;;;5089096;28;20068;-67
2023/12/10 04:43:27;;;;;;;3.75;0.73;;;14.80;55.20;;;;;;5088977;28;20119;-67
2023/12/10 04:45:53;;;;;;;2.70;0.40;;;14.80;55.30;;;;;;5089029;28;20044;-67
2023/12/10 04:48:18;;;;;;;2.47;0.40;;;14.80;55.30;;;;;;5087891;28;20125;-67
2023/12/10 04:50:44;;;;;;;5.65;1.00;;;14.80;55.30;;;;;;5087868;28;20476;-67
2023/12/10 04:53:10;;;;;;;2.45;0.50;;;14.80;55.30;;;;;;5087498;28;20047;-66
2023/12/10 04:55:35;;;;;;;2.13;0.52;;;14.80;55.40;;;;;;5087573;28;20124;-66
2023/12/10 04:58:01;;;;;;;2.13;0.70;;;14.80;55.40;;;;;;5087306;28;20045;-66
2023/12/10 05:00:26;;;;;;;3.45;1.08;;;14.80;55.50;;;;;;5087696;28;20040;-67
2023/12/10 05:02:52;;;;;;;2.45;0.50;;;14.80;55.50;;;;;;5088827;28;20372;-66
2023/12/10 05:05:18;;;;;;;3.00;0.90;;;14.80;55.50;;;;;;5087457;28;20047;-66
2023/12/10 05:07:45;;;;;;;1.73;0.45;;;14.80;55.60;;;;;;5087253;28;20128;-66
2023/12/10 05:10:11;;;;;;;2.38;0.40;;;14.70;55.50;;;;;;5088482;28;20040;-66
2023/12/10 05:12:37;;;;;;;3.05;0.50;;;14.80;55.50;;;;;;5087128;28;20033;-68
2023/12/10 05:15:03;;;;;;;2.88;0.47;;;14.70;55.60;;;;;;5104271;28;20081;-68
2023/12/10 05:17:28;;;;;;;2.33;0.50;;;14.70;55.50;;;;;;5086973;28;20468;-67
2023/12/10 05:19:54;;;;;;;2.88;0.80;;;14.70;55.50;;;;;;5088122;28;20047;-67
2023/12/10 05:22:20;;;;;;;3.63;0.55;;;14.70;55.50;;;;;;5088719;28;20036;-66
2023/12/10 05:24:46;;;;;;;4.05;0.40;;;14.70;55.60;;;;;;5087121;28;20036;-67
2023/12/10 05:27:13;;;;;;;3.80;0.57;;;14.70;55.60;;;;;;5087344;28;20044;-66
2023/12/10 05:29:39;;;;;;;2.20;0.60;;;14.70;55.60;;;;;;5077683;28;20055;-67
2023/12/10 05:32:05;;;;;;;3.15;0.50;;;14.70;55.60;;;;;;5074698;28;20384;-66
2023/12/10 05:34:31;;;;;;;2.50;0.52;;;14.70;55.70;;;;;;5073281;28;20170;-66
2023/12/10 05:36:57;;;;;;;4.88;0.80;;;14.70;55.70;;;;;;5073075;28;20044;-66
2023/12/10 05:39:22;;;;;;;2.85;0.63;;;14.70;55.70;;;;;;5073372;28;20043;-67
2023/12/10 05:41:48;;;;;;;3.20;0.50;;;14.70;55.80;;;;;;5073394;28;20590;-66
2023/12/10 05:44:13;;;;;;;1.65;0.32;;;14.70;55.80;;;;;;5073396;28;20495;-66
2023/12/10 05:46:39;;;;;;;3.70;1.00;;;14.70;55.90;;;;;;5073364;28;20097;-66
2023/12/10 05:49:05;;;;;;;3.10;0.43;;;14.70;55.80;;;;;;5073006;28;20116;-68
2023/12/10 05:51:30;;;;;;;2.28;0.40;;;14.70;55.90;;;;;;5072909;28;20051;-66
2023/12/10 05:53:56;;;;;;;3.33;0.30;;;14.70;55.90;;;;;;5074343;28;20365;-66
2023/12/10 05:56:22;;;;;;;4.55;0.70;;;14.70;55.90;;;;;;5073332;28;20036;-68
2023/12/10 05:58:48;;;;;;;3.47;0.47;;;14.70;56.10;;;;;;5074091;28;20492;-66
2023/12/10 06:01:14;;;;;;;3.60;0.40;;;14.70;56.00;;;;;;5072773;28;20086;-68
2023/12/10 06:03:39;;;;;;;3.05;0.73;;;14.70;56.10;;;;;;5074058;28;20039;-66
2023/12/10 06:06:05;;;;;;;2.45;0.90;;;14.70;56.10;;;;;;5072696;28;20080;-66
2023/12/10 06:08:31;;;;;;;4.25;0.60;;;14.70;56.20;;;;;;5073960;28;20044;-68
2023/12/10 06:10:57;;;;;;;3.58;0.70;;;14.70;56.30;;;;;;5072565;28;20093;-66
2023/12/10 06:13:22;;;;;;;5.55;0.68;;;14.70;56.20;;;;;;5072639;28;20037;-67
2023/12/10 06:15:48;;;;;;;2.40;0.40;;;14.70;56.30;;;;;;5072457;28;20044;-66
2023/12/10 06:18:14;;;;;;;2.33;0.70;;;14.70;56.30;;;;;;5072195;28;20037;-66
2023/12/10 06:20:39;;;;;;;2.08;0.77;;;14.70;56.30;;;;;;5073676;28;20120;-67
2023/12/10 06:23:05;;;;;;;4.95;0.95;;;14.60;56.20;;;;;;5072369;28;20041;-66
2023/12/10 06:25:31;;;;;;;3.58;0.50;;;14.70;56.20;;;;;;5073677;28;20041;-66
2023/12/10 06:27:57;;;;;;;4.55;1.58;;;14.70;56.30;;;;;;5073735;28;20415;-68
2023/12/10 06:30:23;;;;;;;3.78;0.50;;;14.70;56.30;;;;;;5073642;28;20357;-67
2023/12/10 06:32:50;;;;;;;3.58;0.85;;;14.60;56.30;;;;;;5073484;28;20557;-66
2023/12/10 06:35:16;;;;;;;2.60;0.80;;;14.60;56.30;;;;;;5072550;28;20037;-66
2023/12/10 06:37:43;;;;;;;2.55;0.70;;;14.60;56.30;;;;;;5071972;28;20514;-66
2023/12/10 06:40:09;;;;;;;1.92;0.75;;;14.60;56.30;;;;;;5071751;28;20142;-66
2023/12/10 06:42:35;;;;;;;4.90;1.00;;;14.60;56.40;;;;;;5071600;28;20044;-67
2023/12/10 06:45:02;;;;;;;4.70;0.77;;;14.60;56.40;;;;;;5073248;28;20052;-68
2023/12/10 06:47:28;;;;;;;3.92;0.57;;;14.60;56.40;;;;;;5073139;28;20087;-66
2023/12/10 06:49:53;;;;;;;2.65;0.63;;;14.60;56.40;;;;;;5071896;28;20064;-66
2023/12/10 06:52:19;;;;;;;6.35;1.52;;;14.60;56.30;;;;;;5071932;28;20102;-68
2023/12/10 06:54:45;;;;;;;3.72;0.82;;;14.60;56.40;;;;;;5072995;28;20040;-66
2023/12/10 06:57:10;;;;;;;3.75;1.08;;;14.60;56.40;;;;;;5072881;28;20041;-66
2023/12/10 06:59:36;;;;;;;3.08;0.77;;;14.60;56.40;;;;;;5071949;28;20094;-66
2023/12/10 07:02:02;;;;;;;3.97;0.60;;;14.60;56.40;;;;;;5071597;28;20457;-66
2023/12/10 07:04:28;;;;;;;5.22;0.65;;;14.60;56.40;;;;;;5071920;28;20526;-68
2023/12/10 07:06:54;;;;;;;4.00;0.75;;;14.60;56.40;;;;;;5073282;28;20068;-68
2023/12/10 07:09:19;;;;;;;3.85;0.70;;;14.60;56.40;;;;;;5071399;28;20047;-66
2023/12/10 07:11:45;;;;;;;3.38;0.90;;;14.60;56.40;;;;;;5071446;28;20036;-66
2023/12/10 07:14:11;;;;;;;3.22;0.60;;;14.60;56.40;;;;;;5072721;28;20036;-66
2023/12/10 07:16:36;;;;;;;4.50;0.88;;;14.60;56.40;;;;;;5072776;28;20028;-66
2023/12/10 07:19:03;;;;;;;4.05;0.70;;;14.60;56.40;;;;;;5070870;28;20129;-67
2023/12/10 07:21:29;;;;;;;3.13;0.55;;;14.60;56.40;;;;;;5072570;28;20040;-69
2023/12/10 07:23:55;;;;;;;2.55;0.60;;;14.60;56.50;;;;;;5072396;28;20074;-68
2023/12/10 07:26:22;;;;;;;4.47;0.63;;;14.60;56.50;;;;;;5072740;28;20232;-66
2023/12/10 07:28:48;;;;;;;5.07;0.88;;;14.60;56.50;;;;;;5072540;28;20044;-66
2023/12/10 07:31:14;;;;;;;3.28;0.55;;;14.60;56.50;;;;;;5071324;28;20043;-67
2023/12/10 07:33:40;;;;;;;2.20;0.40;;;14.60;56.60;;;;;;5071260;28;20048;-66
2023/12/10 07:36:06;;;;;;;2.17;0.57;;;14.60;56.60;;;;;;5071198;28;20059;-66
2023/12/10 07:38:32;;;;;;;4.13;1.10;;;14.60;56.60;;;;;;5070893;28;20040;-66
2023/12/10 07:40:57;;;;;;;4.30;0.82;;;14.60;56.60;;;;;;5071144;28;20515;-68
2023/12/10 07:43:23;;;;;;;3.17;0.63;;;14.60;56.60;;;;;;5070908;28;20043;-68
2023/12/10 07:45:49;;;;;;;3.97;0.60;;;14.60;56.60;;;;;;5071304;28;20040;-66
2023/12/10 07:48:15;;;;;;;2.65;0.68;;;14.60;56.60;;;;;;5071117;28;20058;-66
2023/12/10 07:50:41;;;;;;;2.80;0.70;;;14.60;56.60;;;;;;5072103;28;20044;-66
2023/12/10 07:53:07;;;;;;;3.35;0.57;;;14.50;56.60;;;;;;5070334;28;20155;-66
2023/12/10 07:55:32;;;;;;;4.13;0.40;;;14.50;56.60;;;;;;5070718;28;20036;-66
2023/12/10 07:57:58;;;;;;;3.35;0.60;;;14.60;56.60;;;;;;5070846;28;20040;-66
2023/12/10 08:00:24;;;;;;;4.85;0.50;;;14.60;56.60;;;;;;5072411;28;20047;-67
2023/12/10 08:02:50;;;;;;;3.72;0.80;;;14.50;56.60;;;;;;5070697;28;20032;-67
2023/12/10 08:05:15;;;;;;;3.42;1.27;;;14.60;56.70;;;;;;5070455;28;20043;-66
2023/12/10 08:07:41;;;;;;;2.70;0.50;;;14.50;56.70;;;;;;5071924;28;20044;-66
2023/12/10 08:10:07;;;;;;;2.13;0.50;;;14.50;56.70;;;;;;5070522;28;20036;-66
2023/12/10 08:12:34;;;;;;;3.65;0.70;;;14.60;56.70;;;;;;5071892;28;20461;-68
2023/12/10 08:15:00;;;;;;;4.60;0.88;;;14.60;56.80;;;;;;5070537;28;20529;-67
2023/12/10 08:17:26;;;;;;;4.25;0.50;;;14.50;56.60;;;;;;5071629;28;20049;-67
2023/12/10 08:19:51;;;;;;;3.22;0.80;;;14.50;56.70;;;;;;5070477;28;20119;-67
2023/12/10 08:22:17;;;;;;;3.42;0.90;;;14.50;56.60;;;;;;5070528;28;20040;-67
2023/12/10 08:24:43;;;;;;;3.17;0.88;;;14.50;56.60;;;;;;5070616;28;20044;-66
2023/12/10 08:27:09;;;;;;;2.53;0.43;;;14.50;56.60;;;;;;5070424;28;20388;-66
2023/12/10 08:29:34;;;;;;;2.70;0.40;;;14.50;56.60;;;;;;5071903;28;20060;-67
2023/12/10 08:32:00;;;;;;;2.28;0.70;;;14.50;56.60;;;;;;5070371;28;20068;-68
2023/12/10 08:34:26;;;;;;;2.80;0.50;;;14.50;56.60;;;;;;5071624;28;20047;-66
2023/12/10 08:36:52;;;;;;;3.95;0.43;;;14.50;56.60;;;;;;5070147;28;20043;-68
2023/12/10 08:39:18;;;;;;;3.58;0.93;;;14.50;56.70;;;;;;5070577;28;20052;-67
2023/12/10 08:41:43;;;;;;;2.92;0.40;;;14.50;56.70;;;;;;5070188;28;20120;-67
2023/12/10 08:44:10;;;;;;;3.72;0.70;;;14.50;56.70;;;;;;5071525;28;20170;-66
2023/12/10 08:46:35;;;;;;;3.58;0.57;;;14.50;56.60;;;;;;5070225;28;20048;-67
2023/12/10 08:49:01;;;;;;;4.00;0.82;;;14.50;56.70;;;;;;5070212;28;20040;-66
2023/12/10 08:51:27;;;;;;;4.90;0.65;;;14.50;56.80;;;;;;5070167;28;20064;-68
2023/12/10 08:53:52;;;;;;;1.52;0.40;;;14.50;56.70;;;;;;5070172;28;20051;-66
2023/12/10 08:56:18;;;;;;;5.03;0.50;;;14.50;56.70;;;;;;5070025;28;20052;-69
2023/12/10 08:58:43;;;;;;;5.07;0.73;;;14.50;56.70;;;;;;5070175;28;20049;-68
2023/12/10 09:01:10;;;;;;;4.82;0.55;;;14.50;56.70;;;;;;5069993;28;20472;-67
2023/12/10 09:03:35;;;;;;;4.15;0.93;;;14.50;56.70;;;;;;5070182;28;20032;-69
2023/12/10 09:06:01;;;;;;;3.42;0.80;;;14.50;56.70;;;;;;5073754;28;20036;-69
2023/12/10 09:08:27;;;;;;;2.78;0.43;;;14.50;56.70;;;;;;5075173;28;20117;-68
2023/12/10 09:10:53;;;;;;;3.50;0.60;;;14.50;56.60;;;;;;5075047;28;20472;-68
2023/12/10 09:13:19;;;;;;;5.10;1.33;;;14.50;56.70;;;;;;5073876;28;20067;-68
2023/12/10 09:15:45;;;;;;;3.65;0.55;;;14.50;57.40;;;;;;5075160;28;20472;-68
2023/12/10 09:18:11;;;;;;;3.58;0.63;;;14.40;56.60;;;;;;5074775;28;20051;-68
2023/12/10 09:20:36;;;;;;;4.45;0.52;;;14.50;56.80;;;;;;5074009;28;20157;-69
2023/12/10 09:23:02;;;;;;;4.68;0.80;;;14.50;56.70;;;;;;5073503;28;20043;-67
2023/12/10 09:25:28;;;;;;;2.95;0.60;;;14.50;56.80;;;;;;5073885;28;20080;-66
2023/12/10 09:27:53;;;;;;;2.67;0.70;;;14.50;56.80;;;;;;5073578;28;20036;-68
2023/12/10 09:30:19;;;;;;;4.07;0.70;;;14.50;56.90;;;;;;5073712;28;20407;-68
2023/12/10 09:32:45;;;;;;;2.63;0.43;;;14.50;56.80;;;;;;5073646;28;20070;-66
2023/12/10 09:35:10;;;;;;;3.38;0.52;;;14.50;56.70;;;;;;5074572;28;20097;-66
2023/12/10 09:37:37;;;;;;;2.83;0.55;;;14.50;56.80;;;;;;5073362;28;20075;-68
2023/12/10 09:40:04;;;;;;;2.90;0.55;;;14.50;56.80;;;;;;5074533;28;20511;-67
2023/12/10 09:42:30;;;;;;;3.88;1.17;;;14.50;56.70;;;;;;5073589;28;20040;-68
2023/12/10 09:44:55;;;;;;;3.80;1.02;;;14.50;56.70;;;;;;5073430;28;20460;-66
2023/12/10 09:47:24;;;;;;;3.47;1.05;;;14.50;56.80;;;;;;5074291;28;20426;-68
2023/12/10 09:49:54;;;;;;;2.08;0.50;;;14.50;56.80;;;;;;5074499;28;20045;-68
2023/12/10 09:52:19;;;;;;;5.03;0.88;;;14.40;56.80;;;;;;5074284;28;20067;-67
2023/12/10 09:54:45;;;;;;;1.90;0.55;;;14.50;56.90;;;;;;5073219;28;20500;-67
2023/12/10 09:57:13;;;;;;;5.55;0.90;;;14.50;56.80;;;;;;5073031;28;20488;-67
2023/12/10 09:59:38;;;;;;;3.65;0.50;;;14.50;56.90;;;;;;5074083;28;20052;-67
2023/12/10 10:02:05;;;;;;;5.43;0.82;;;14.50;56.80;;;;;;5072843;28;20033;-68
2023/12/10 10:04:31;;;;;;;4.80;0.60;;;14.50;56.80;;;;;;5072650;28;20480;-68
2023/12/10 10:06:57;;;;;;;4.55;0.98;;;14.40;56.80;;;;;;5074223;28;20037;-66
2023/12/10 10:09:23;;;;;;;5.22;0.82;;;14.40;56.80;;;;;;5073997;28;20047;-69
2023/12/10 10:11:50;;;;;;;3.58;0.82;;;14.40;56.80;;;;;;5073943;28;20051;-69
2023/12/10 10:14:17;;;;;;;4.40;0.85;;;14.40;56.80;;;;;;5072855;28;20059;-67
2023/12/10 10:16:48;;;;;;;3.95;0.60;;;14.50;56.80;;;;;;5072277;28;20028;-68
2023/12/10 10:19:14;;;;;;;3.58;0.70;;;14.40;56.80;;;;;;5072490;28;20076;-69
2023/12/10 10:21:41;;;;;;;3.03;0.77;;;14.40;56.80;;;;;;5072513;28;20041;-66
2023/12/10 10:24:07;;;;;;;2.85;0.95;;;14.40;56.80;;;;;;5072637;28;20116;-68
2023/12/10 10:26:35;;;;;;;3.28;0.85;;;14.50;56.90;;;;;;5073568;28;20185;-66
2023/12/10 10:29:03;;;;;;;5.03;0.70;;;14.50;56.90;;;;;;5073783;28;20044;-66
2023/12/10 10:31:29;;;;;;;5.03;0.85;;;14.40;56.90;;;;;;5072316;28;20484;-66
2023/12/10 10:34:00;;;;;;;3.55;0.60;;;14.40;56.80;;;;;;5072162;28;20052;-68
2023/12/10 10:36:27;;;;;;;3.03;0.50;;;14.40;56.80;;;;;;5072472;28;20040;-67
2023/12/10 10:38:52;;;;;;;4.30;0.60;;;14.40;56.80;;;;;;5072088;28;20518;-67
2023/12/10 10:41:19;;;;;;;5.10;0.85;;;14.40;56.80;;;;;;5071989;28;20492;-67
2023/12/10 10:43:44;;;;;;;3.90;0.73;;;14.50;56.80;;;;;;5089207;28;20515;-67
2023/12/10 10:46:11;;;;;;;3.03;0.55;;;14.50;56.80;;;;;;5071964;28;20078;-66
2023/12/10 10:48:39;;;;;;;4.22;0.80;;;14.40;56.70;;;;;;5071919;28;20051;-67
2023/12/10 10:51:06;;;;;;;3.30;0.98;;;14.40;56.80;;;;;;5073146;28;20118;-67
2023/12/10 10:53:35;;;;;;;3.85;0.70;;;14.40;56.80;;;;;;5073150;28;20083;-68
2023/12/10 10:56:02;;;;;;;4.65;0.73;;;14.40;56.80;;;;;;5071901;28;20048;-66
2023/12/10 10:58:29;;;;;;;4.28;0.77;;;14.40;56.80;;;;;;5071673;28;20396;-67
2023/12/10 11:00:56;;;;;;;3.65;0.75;;;14.40;56.90;;;;;;5071593;28;20082;-68
2023/12/10 11:03:28;;;;;;;4.13;0.82;;;14.50;56.90;;;;;;5071851;28;20048;-69
2023/12/10 11:05:57;;;;;;;4.82;0.75;;;14.40;56.80;;;;;;5071755;28;20044;-66
2023/12/10 11:08:25;;;;;;;3.08;0.60;;;14.40;56.80;;;;;;5071864;28;20079;-67
2023/12/10 11:10:59;;;;;;;5.57;0.77;;;14.40;56.80;;;;;;5072612;28;20044;-67
2023/12/10 11:13:44;;;;;;;2.70;0.60;;;14.40;56.70;;;;;;5071465;28;20040;-69
2023/12/10 11:16:10;;;;;;;3.05;0.90;;;14.40;56.70;;;;;;5072719;28;20037;-68
2023/12/10 11:18:56;;;;;;;3.50;0.80;;;14.40;56.70;;;;;;5071103;28;20119;-67
2023/12/10 11:21:22;;;;;;;4.25;1.17;;;14.40;56.70;;;;;;5071366;28;20086;-67
2023/12/10 11:23:48;;;;;;;6.88;1.50;;;14.50;56.70;;;;;;5072557;28;20512;-67
2023/12/10 11:26:14;;;;;;;3.92;1.15;;;14.40;56.70;;;;;;5072222;28;20036;-66
2023/12/10 11:28:42;;;;;;;4.22;1.02;;;14.40;56.70;;;;;;5070873;28;20044;-67
2023/12/10 11:31:08;;;;;;;3.80;1.15;;;14.40;56.70;;;;;;5071116;28;20496;-71
2023/12/10 11:33:38;;;;;;;3.83;1.05;;;14.50;56.70;;;;;;5071107;28;20553;-71
2023/12/10 11:36:05;;;;;;;3.30;0.53;;;14.50;56.70;;;;;;5072200;28;20496;-70
2023/12/10 11:38:31;;;;;;;4.90;0.70;;;14.40;56.70;;;;;;5071052;28;20317;-70
2023/12/10 11:40:57;;;;;;;4.13;0.90;;;14.50;56.60;;;;;;5072383;28;20032;-69
2023/12/10 11:43:23;;;;;;;6.80;1.13;;;14.50;56.70;;;;;;5070856;28;20086;-71
2023/12/10 11:45:52;;;;;;;5.45;1.75;;;14.50;56.70;;;;;;5071218;28;20044;-69
2023/12/10 11:48:19;;;;;;;3.78;1.00;;;14.40;56.60;;;;;;5070773;28;20036;-69
2023/12/10 11:50:46;;;;;;;3.55;0.90;;;14.40;56.60;;;;;;5070775;28;20150;-71
2023/12/10 11:53:14;;;;;;;2.47;1.00;;;14.50;56.60;;;;;;5070704;28;20182;-69
2023/12/10 11:55:41;;;;;;;4.10;1.50;;;14.50;56.60;;;;;;5071084;28;20077;-68
2023/12/10 11:58:07;;;;;;;3.33;0.80;;;14.40;56.50;;;;;;5070682;28;20044;-71
2023/12/10 12:00:33;;;;;;;4.00;0.60;;;14.40;56.50;;;;;;5071089;28;20036;-69
2023/12/10 12:03:01;;;;;;;5.13;1.42;;;14.40;56.50;;;;;;5071925;28;20055;-69
2023/12/10 12:05:27;;;;;;;2.75;0.88;;;14.50;56.50;;;;;;5071836;28;20063;-69
2023/12/10 12:07:53;;;;;;;4.93;0.70;;;14.50;56.60;;;;;;5071043;28;20044;-70
2023/12/10 12:10:19;;;;;;;5.45;0.90;;;14.50;56.50;;;;;;5070755;28;20467;-71
2023/12/10 12:12:46;;;;;;;2.15;0.60;;;14.50;56.50;;;;;;5070525;28;20045;-68
2023/12/10 12:15:14;;;;;;;3.65;0.75;;;14.40;56.40;;;;;;5071823;28;20503;-72
2023/12/10 12:17:44;;;;;;;4.35;1.13;;;14.50;56.50;;;;;;5070309;28;20443;-69
2023/12/10 12:20:21;;;;;;;6.65;0.95;;;14.40;56.50;;;;;;5070461;28;20048;-73
2023/12/10 12:22:47;;;;;;;4.18;1.00;;;14.50;56.50;;;;;;5070672;28;20127;-69
2023/12/10 12:25:14;;;;;;;5.07;0.80;;;14.50;56.40;;;;;;5071947;28;20111;-70
2023/12/10 12:27:40;;;;;;;3.85;0.90;;;14.50;56.50;;;;;;5070349;28;20045;-71
2023/12/10 12:30:06;;;;;;;3.42;0.60;;;14.50;56.40;;;;;;5070690;28;20051;-72
2023/12/10 12:32:32;;;;;;;3.00;0.75;;;14.50;56.40;;;;;;5070325;28;20056;-69
2023/12/10 12:34:58;;;;;;;3.15;0.85;;;14.50;56.40;;;;;;5070321;28;20057;-71
2023/12/10 12:37:23;;;;;;;4.65;0.77;;;14.50;56.40;;;;;;5070323;28;20393;-71
2023/12/10 12:39:52;;;;;;;3.40;0.73;;;14.40;56.30;;;;;;5072759;28;20036;-69
2023/12/10 12:42:17;;;;;;;3.17;0.80;;;14.40;56.30;;;;;;5074701;28;20044;-68
2023/12/10 12:44:46;;;;;;;2.65;0.65;;;14.40;56.30;;;;;;5074482;28;20139;-70